createdAt,value
2023-06-11T00:01:54.021Z,97402.40
2023-06-11T00:04:25.939Z,97411.00
2023-06-11T00:07:00.932Z,97406.00
2023-06-11T00:09:28.066Z,97407.60
2023-06-11T00:11:55.077Z,97405.40
2023-06-11T00:14:23.615Z,97405.20
2023-06-11T00:16:51.468Z,97404.20
2023-06-11T00:19:21.362Z,97409.40
2023-06-11T00:21:50.163Z,97409.20
2023-06-11T00:24:18.091Z,97410.60
2023-06-11T00:26:45.094Z,97407.80
2023-06-11T00:29:11.873Z,97408.80
2023-06-11T00:31:38.702Z,97411.00
2023-06-11T00:34:05.573Z,97410.20
2023-06-11T00:36:34.398Z,97410.40
2023-06-11T00:39:02.749Z,97413.40
2023-06-11T00:41:32.011Z,97412.40
2023-06-11T00:43:59.085Z,97410.20
2023-06-11T00:46:27.082Z,97415.40
2023-06-11T00:48:54.487Z,97418.20
2023-06-11T00:51:26.128Z,97417.00
2023-06-11T00:53:54.726Z,97418.80
2023-06-11T00:56:21.603Z,97410.80
2023-06-11T00:58:51.253Z,97413.60
2023-06-11T01:01:27.487Z,97416.40
2023-06-11T01:03:57.862Z,97417.80
2023-06-11T01:06:29.824Z,97418.40
2023-06-11T01:08:59.675Z,97420.20
2023-06-11T01:11:36.580Z,97421.00
2023-06-11T01:14:07.123Z,97420.40
2023-06-11T01:16:48.528Z,97419.40
2023-06-11T01:19:33.457Z,97419.20
2023-06-11T01:22:39.266Z,97419.20
2023-06-11T01:25:17.930Z,97422.60
2023-06-11T01:27:45.116Z,97424.80
2023-06-11T01:30:18.663Z,97425.80
2023-06-11T01:32:49.996Z,97425.00
2023-06-11T01:35:17.762Z,97422.20
2023-06-11T01:37:46.791Z,97427.00
2023-06-11T01:40:16.320Z,97421.40
2023-06-11T01:42:48.221Z,97423.20
2023-06-11T01:45:15.166Z,97425.80
2023-06-11T01:47:41.868Z,97425.20
2023-06-11T01:50:10.631Z,97427.60
2023-06-11T01:52:37.642Z,97433.60
2023-06-11T01:55:04.798Z,97430.40
2023-06-11T01:57:31.402Z,97430.00
2023-06-11T01:59:58.070Z,97431.20
2023-06-11T02:02:24.750Z,97432.40
2023-06-11T02:04:51.451Z,97434.20
2023-06-11T02:07:18.058Z,97435.60
2023-06-11T02:09:44.652Z,97438.20
2023-06-11T02:12:11.326Z,97439.00
2023-06-11T02:14:37.897Z,97439.20
2023-06-11T02:17:05.025Z,97439.40
2023-06-11T02:19:35.037Z,97440.20
2023-06-11T02:22:01.668Z,97440.40
2023-06-11T02:24:28.434Z,97445.00
2023-06-11T02:26:55.035Z,97447.40
2023-06-11T02:29:22.101Z,97446.80
2023-06-11T02:31:48.759Z,97447.20
2023-06-11T02:34:15.842Z,97447.00
2023-06-11T02:36:42.468Z,97451.60
2023-06-11T02:39:09.174Z,97452.60
2023-06-11T02:41:36.189Z,97453.00
2023-06-11T02:44:02.900Z,97455.00
2023-06-11T02:46:29.543Z,97453.80
2023-06-11T02:48:56.231Z,97457.20
2023-06-11T02:51:22.855Z,97456.00
2023-06-11T02:53:49.972Z,97456.00
2023-06-11T02:56:16.630Z,97457.60
2023-06-11T02:58:43.210Z,97459.80
2023-06-11T03:01:09.833Z,97462.80
2023-06-11T03:03:36.651Z,97459.60
2023-06-11T03:06:03.528Z,97460.60
2023-06-11T03:08:30.546Z,97462.40
2023-06-11T03:10:57.207Z,97460.60
2023-06-11T03:13:23.783Z,97463.40
2023-06-11T03:15:51.844Z,97464.20
2023-06-11T03:18:18.570Z,97467.40
2023-06-11T03:20:45.199Z,97471.20
2023-06-11T03:23:12.178Z,97469.80
2023-06-11T03:25:39.587Z,97471.80
2023-06-11T03:28:06.667Z,97471.60
2023-06-11T03:30:33.891Z,97468.40
2023-06-11T03:33:00.888Z,97472.80
2023-06-11T03:35:27.718Z,97471.20
2023-06-11T03:37:54.953Z,97466.80
2023-06-11T03:40:23.119Z,97470.80
2023-06-11T03:42:50.050Z,97468.40
2023-06-11T03:45:17.203Z,97471.60
2023-06-11T03:47:43.858Z,97473.20
2023-06-11T03:50:11.010Z,97476.00
2023-06-11T03:52:37.944Z,97476.80
2023-06-11T03:55:06.005Z,97476.80
2023-06-11T03:57:33.140Z,97477.60
2023-06-11T04:00:00.847Z,97478.40
2023-06-11T04:02:27.919Z,97482.20
2023-06-11T04:04:55.328Z,97481.60
2023-06-11T04:07:22.084Z,97482.20
2023-06-11T04:09:48.747Z,97483.80
2023-06-11T04:12:15.535Z,97488.20
2023-06-11T04:14:42.593Z,97488.00
2023-06-11T04:17:09.894Z,97488.80
2023-06-11T04:19:37.431Z,97490.20
2023-06-11T04:22:04.946Z,97496.20
2023-06-11T04:24:31.706Z,97494.80
2023-06-11T04:26:58.526Z,97497.00
2023-06-11T04:29:30.909Z,97500.20
2023-06-11T04:32:03.183Z,97498.40
2023-06-11T04:34:31.317Z,97497.60
2023-06-11T04:37:00.537Z,97497.40
2023-06-11T04:39:27.682Z,97498.20
2023-06-11T04:41:54.848Z,97498.60
2023-06-11T04:44:23.544Z,97500.80
2023-06-11T04:46:58.800Z,97505.20
2023-06-11T04:49:28.404Z,97510.80
2023-06-11T04:51:55.546Z,97510.40
2023-06-11T04:54:24.354Z,97511.60
2023-06-11T04:56:51.409Z,97507.60
2023-06-11T04:59:19.140Z,97505.00
2023-06-11T05:01:51.750Z,97504.80
2023-06-11T05:04:21.084Z,97508.20
2023-06-11T05:06:47.867Z,97509.60
2023-06-11T05:09:18.416Z,97510.20
2023-06-11T05:11:48.434Z,97514.60
2023-06-11T05:14:16.519Z,97512.00
2023-06-11T05:16:43.706Z,97506.80
2023-06-11T05:19:11.708Z,97512.40
2023-06-11T05:21:38.951Z,97516.00
2023-06-11T05:24:09.305Z,97515.60
2023-06-11T05:26:40.016Z,97516.40
2023-06-11T05:29:10.022Z,97515.80
2023-06-11T05:31:37.132Z,97511.60
2023-06-11T05:34:05.960Z,97515.60
2023-06-11T05:36:33.604Z,97517.60
2023-06-11T05:39:00.477Z,97522.20
2023-06-11T05:41:27.130Z,97522.40
2023-06-11T05:43:54.344Z,97517.80
2023-06-11T05:46:25.180Z,97518.20
2023-06-11T05:48:52.471Z,97518.60
2023-06-11T05:51:19.543Z,97521.00
2023-06-11T05:53:47.356Z,97525.40
2023-06-11T05:56:14.293Z,97521.40
2023-06-11T05:58:41.142Z,97529.20
2023-06-11T06:01:10.239Z,97534.00
2023-06-11T06:03:38.520Z,97536.80
2023-06-11T06:06:05.978Z,97537.40
2023-06-11T06:08:32.655Z,97540.00
2023-06-11T06:10:59.664Z,97540.80
2023-06-11T06:13:27.339Z,97545.40
2023-06-11T06:15:56.341Z,97551.20
2023-06-11T06:18:25.431Z,97556.00
2023-06-11T06:20:52.169Z,97555.40
2023-06-11T06:23:21.171Z,97559.60
2023-06-11T06:25:55.141Z,97562.40
2023-06-11T06:28:21.806Z,97564.40
2023-06-11T06:30:48.650Z,97565.00
2023-06-11T06:33:15.407Z,97565.60
2023-06-11T06:35:42.162Z,97566.40
2023-06-11T06:38:09.031Z,97568.40
2023-06-11T06:40:36.101Z,97567.20
2023-06-11T06:43:02.760Z,97569.20
2023-06-11T06:45:34.600Z,97566.80
2023-06-11T06:48:04.155Z,97571.40
2023-06-11T06:50:31.054Z,97570.40
2023-06-11T06:52:58.528Z,97572.00
2023-06-11T06:55:25.166Z,97574.20
2023-06-11T06:57:52.818Z,97574.40
2023-06-11T07:00:19.792Z,97573.60
2023-06-11T07:02:47.155Z,97578.20
2023-06-11T07:05:14.363Z,97575.20
2023-06-11T07:07:43.501Z,97574.00
2023-06-11T07:10:11.512Z,97575.00
2023-06-11T07:12:38.569Z,97577.40
2023-06-11T07:15:05.913Z,97576.60
2023-06-11T07:17:32.705Z,97579.00
2023-06-11T07:19:59.437Z,97580.20
2023-06-11T07:22:26.275Z,97586.00
2023-06-11T07:24:53.082Z,97584.60
2023-06-11T07:27:19.829Z,97581.40
2023-06-11T07:29:46.872Z,97581.20
2023-06-11T07:32:13.570Z,97578.20
2023-06-11T07:34:41.586Z,97582.00
2023-06-11T07:37:08.214Z,97584.60
2023-06-11T07:39:34.951Z,97581.80
2023-06-11T07:42:01.545Z,97578.60
2023-06-11T07:44:29.379Z,97576.80
2023-06-11T07:46:56.527Z,97579.80
2023-06-11T07:49:23.317Z,97582.40
2023-06-11T07:51:50.294Z,97582.40
2023-06-11T07:54:17.961Z,97583.40
2023-06-11T07:56:47.997Z,97581.40
2023-06-11T07:59:15.210Z,97584.60
2023-06-11T08:01:43.072Z,97587.80
2023-06-11T08:04:09.896Z,97588.60
2023-06-11T08:06:37.193Z,97586.80
2023-06-11T08:09:04.665Z,97588.60
2023-06-11T08:11:31.332Z,97581.40
2023-06-11T08:13:58.055Z,97583.00
2023-06-11T08:16:24.883Z,97590.00
2023-06-11T08:18:55.006Z,97594.80
2023-06-11T08:21:21.633Z,97597.00
2023-06-11T08:23:49.634Z,97595.40
2023-06-11T08:26:16.853Z,97593.40
2023-06-11T08:28:44.279Z,97594.00
2023-06-11T08:31:11.991Z,97594.00
2023-06-11T08:33:38.589Z,97589.40
2023-06-11T08:36:06.420Z,97588.00
2023-06-11T08:38:33.103Z,97582.60
2023-06-11T08:40:59.756Z,97580.20
2023-06-11T08:43:26.637Z,97583.00
2023-06-11T08:45:53.359Z,97586.00
2023-06-11T08:48:24.207Z,97592.60
2023-06-11T08:50:51.502Z,97597.80
2023-06-11T08:53:18.355Z,97596.40
2023-06-11T08:55:46.658Z,97598.40
2023-06-11T08:58:13.776Z,97604.20
2023-06-11T09:00:40.481Z,97603.00
2023-06-11T09:03:09.263Z,97600.00
2023-06-11T09:05:36.767Z,97606.00
2023-06-11T09:08:10.663Z,97603.40
2023-06-11T09:10:51.368Z,97606.20
2023-06-11T09:13:19.415Z,97610.00
2023-06-11T09:15:50.876Z,97611.60
2023-06-11T09:18:23.810Z,97618.60
2023-06-11T09:20:56.203Z,97614.40
2023-06-11T09:23:34.710Z,97616.40
2023-06-11T09:26:02.591Z,97616.20
2023-06-11T09:28:34.465Z,97620.60
2023-06-11T09:31:02.675Z,97619.20
2023-06-11T09:33:30.915Z,97619.40
2023-06-11T09:35:57.815Z,97615.40
2023-06-11T09:38:25.105Z,97623.00
2023-06-11T09:40:54.844Z,97628.20
2023-06-11T09:43:23.447Z,97627.60
2023-06-11T09:45:55.723Z,97631.80
2023-06-11T09:48:26.200Z,97627.40
2023-06-11T09:50:54.779Z,97627.40
2023-06-11T09:53:24.011Z,97624.20
2023-06-11T09:56:05.541Z,97621.00
2023-06-11T09:58:39.861Z,97618.80
2023-06-11T10:01:08.011Z,97615.20
2023-06-11T10:03:35.030Z,97620.60
2023-06-11T10:06:06.740Z,97620.20
2023-06-11T10:08:36.447Z,97626.40
2023-06-11T10:11:05.108Z,97629.40
2023-06-11T10:13:35.821Z,97627.80
2023-06-11T10:16:04.294Z,97625.80
2023-06-11T10:18:31.792Z,97630.20
2023-06-11T10:21:03.284Z,97632.00
2023-06-11T10:23:37.854Z,97631.20
2023-06-11T10:26:05.523Z,97636.40
2023-06-11T10:28:43.520Z,97632.40
2023-06-11T10:31:10.477Z,97635.00
2023-06-11T10:33:43.643Z,97633.40
2023-06-11T10:36:10.296Z,97633.40
2023-06-11T10:38:40.004Z,97633.20
2023-06-11T10:41:06.930Z,97632.40
2023-06-11T10:43:36.976Z,97634.00
2023-06-11T10:46:05.779Z,97630.20
2023-06-11T10:48:32.471Z,97626.60
2023-06-11T10:51:03.739Z,97624.20
2023-06-11T10:53:38.005Z,97620.80
2023-06-11T10:56:04.948Z,97626.20
2023-06-11T10:58:32.477Z,97620.60
2023-06-11T11:01:00.185Z,97621.00
2023-06-11T11:03:31.745Z,97619.80
2023-06-11T11:05:59.892Z,97616.00
2023-06-11T11:08:27.030Z,97613.60
2023-06-11T11:11:03.579Z,97615.00
2023-06-11T11:13:30.605Z,97610.40
2023-06-11T11:16:00.968Z,97609.20
2023-06-11T11:18:28.225Z,97616.80
2023-06-11T11:20:55.973Z,97613.40
2023-06-11T11:23:25.899Z,97611.20
2023-06-11T11:25:53.091Z,97607.80
2023-06-11T11:28:19.820Z,97611.20
2023-06-11T11:30:46.556Z,97613.00
2023-06-11T11:33:13.369Z,97607.80
2023-06-11T11:36:06.793Z,97608.80
2023-06-11T11:38:37.693Z,97609.80
2023-06-11T11:41:08.738Z,97616.00
2023-06-11T11:43:42.701Z,97610.20
2023-06-11T11:46:20.165Z,97614.80
2023-06-11T11:48:47.660Z,97613.40
2023-06-11T11:51:16.781Z,97613.20
2023-06-11T11:53:43.832Z,97612.00
2023-06-11T11:56:10.887Z,97606.40
2023-06-11T11:58:41.902Z,97612.40
2023-06-11T12:01:16.914Z,97610.20
2023-06-11T12:03:43.700Z,97604.80
2023-06-11T12:06:10.967Z,97603.20
2023-06-11T12:08:38.039Z,97603.40
2023-06-11T12:11:07.800Z,97600.00
2023-06-11T12:13:35.572Z,97598.40
2023-06-11T12:16:04.875Z,97598.40
2023-06-11T12:18:32.998Z,97595.20
2023-06-11T12:20:59.769Z,97592.40
2023-06-11T12:23:26.420Z,97588.60
2023-06-11T12:25:53.023Z,97585.20
2023-06-11T12:28:20.086Z,97585.20
2023-06-11T12:30:47.157Z,97586.80
2023-06-11T12:33:13.814Z,97589.80
2023-06-11T12:35:41.291Z,97589.00
2023-06-11T12:38:08.032Z,97584.80
2023-06-11T12:40:34.723Z,97582.60
2023-06-11T12:43:02.035Z,97580.60
2023-06-11T12:45:31.614Z,97585.20
2023-06-11T12:47:58.472Z,97582.00
2023-06-11T12:50:27.229Z,97582.80
2023-06-11T12:52:54.234Z,97581.40
2023-06-11T12:55:21.682Z,97584.40
2023-06-11T12:57:48.739Z,97584.60
2023-06-11T13:00:16.342Z,97581.80
2023-06-11T13:02:43.354Z,97583.40
2023-06-11T13:05:10.188Z,97582.60
2023-06-11T13:07:36.879Z,97587.60
2023-06-11T13:10:04.992Z,97590.40
2023-06-11T13:12:32.733Z,97587.80
2023-06-11T13:14:59.710Z,97591.60
2023-06-11T13:17:26.440Z,97588.60
2023-06-11T13:19:55.681Z,97590.00
2023-06-11T13:22:22.982Z,97586.00
2023-06-11T13:24:49.861Z,97585.00
2023-06-11T13:27:16.522Z,97581.80
2023-06-11T13:29:43.240Z,97581.00
2023-06-11T13:32:10.015Z,97578.60
2023-06-11T13:34:37.276Z,97573.60
2023-06-11T13:37:04.497Z,97579.40
2023-06-11T13:39:31.464Z,97578.40
2023-06-11T13:41:58.137Z,97577.40
2023-06-11T13:44:25.472Z,97579.80
2023-06-11T13:46:52.484Z,97578.40
2023-06-11T13:49:19.369Z,97575.60
2023-06-11T13:51:46.013Z,97571.60
2023-06-11T13:54:12.592Z,97568.00
2023-06-11T13:56:40.486Z,97568.60
2023-06-11T13:59:07.595Z,97563.40
2023-06-11T14:01:34.333Z,97567.40
2023-06-11T14:04:01.150Z,97567.20
2023-06-11T14:06:29.050Z,97565.60
2023-06-11T14:08:57.430Z,97563.00
2023-06-11T14:11:26.767Z,97562.80
2023-06-11T14:13:53.469Z,97555.40
2023-06-11T14:16:20.406Z,97552.80
2023-06-11T14:18:47.180Z,97559.60
2023-06-11T14:21:13.817Z,97560.60
2023-06-11T14:23:40.518Z,97559.60
2023-06-11T14:26:07.156Z,97558.20
2023-06-11T14:28:33.798Z,97560.80
2023-06-11T14:31:01.099Z,97557.20
2023-06-11T14:33:27.822Z,97556.40
2023-06-11T14:35:54.562Z,97552.20
2023-06-11T14:38:21.446Z,97548.80
2023-06-11T14:40:48.474Z,97554.00
2023-06-11T14:43:15.397Z,97550.00
2023-06-11T14:45:42.204Z,97548.00
2023-06-11T14:48:09.042Z,97542.60
2023-06-11T14:50:36.001Z,97538.00
2023-06-11T14:53:02.673Z,97548.00
2023-06-11T14:55:29.306Z,97548.20
2023-06-11T14:57:55.914Z,97546.60
2023-06-11T15:00:22.881Z,97545.60
2023-06-11T15:02:49.610Z,97546.40
2023-06-11T15:05:16.672Z,97541.20
2023-06-11T15:07:43.378Z,97543.20
2023-06-11T15:10:11.843Z,97545.00
2023-06-11T15:12:38.912Z,97549.20
2023-06-11T15:15:06.673Z,97551.00
2023-06-11T15:17:37.263Z,97550.60
2023-06-11T15:20:08.127Z,97556.00
2023-06-11T15:22:37.954Z,97564.00
2023-06-11T15:25:04.998Z,97561.40
2023-06-11T15:27:31.948Z,97562.00
2023-06-11T15:29:58.895Z,97566.60
2023-06-11T15:32:25.551Z,97558.20
2023-06-11T15:34:52.243Z,97560.20
2023-06-11T15:37:19.253Z,97561.20
2023-06-11T15:39:51.455Z,97556.40
2023-06-11T15:42:19.166Z,97557.80
2023-06-11T15:44:46.514Z,97554.40
2023-06-11T15:47:13.286Z,97549.60
2023-06-11T15:49:39.936Z,97550.60
2023-06-11T15:52:07.032Z,97551.40
2023-06-11T15:54:33.698Z,97551.20
2023-06-11T15:57:01.975Z,97554.00
2023-06-11T15:59:28.583Z,97553.20
2023-06-11T16:01:55.293Z,97550.40
2023-06-11T16:04:24.304Z,97546.20
2023-06-11T16:06:51.309Z,97549.80
2023-06-11T16:09:18.045Z,97542.20
2023-06-11T16:11:44.748Z,97546.80
2023-06-11T16:14:11.431Z,97543.80
2023-06-11T16:16:38.107Z,97549.20
2023-06-11T16:19:04.859Z,97547.00
2023-06-11T16:21:31.453Z,97546.60
2023-06-11T16:23:58.121Z,97544.80
2023-06-11T16:26:25.782Z,97545.40
2023-06-11T16:28:53.690Z,97547.60
2023-06-11T16:31:20.703Z,97549.00
2023-06-11T16:33:57.150Z,97549.80
2023-06-11T16:36:26.551Z,97552.40
2023-06-11T16:38:53.176Z,97553.80
2023-06-11T16:41:19.909Z,97556.20
2023-06-11T16:43:46.573Z,97557.80
2023-06-11T16:46:13.214Z,97554.60
2023-06-11T16:48:39.935Z,97557.40
2023-06-11T16:51:06.651Z,97551.60
2023-06-11T16:53:33.497Z,97555.20
2023-06-11T16:56:00.246Z,97552.60
2023-06-11T16:58:27.317Z,97554.40
2023-06-11T17:00:54.050Z,97554.80
2023-06-11T17:03:20.867Z,97552.80
2023-06-11T17:05:47.607Z,97556.80
2023-06-11T17:08:14.419Z,97562.80
2023-06-11T17:10:41.189Z,97556.80
2023-06-11T17:13:07.861Z,97562.00
2023-06-11T17:15:34.628Z,97561.00
2023-06-11T17:18:01.405Z,97565.00
2023-06-11T17:20:28.537Z,97565.60
2023-06-11T17:22:55.106Z,97564.40
2023-06-11T17:25:24.856Z,97561.60
2023-06-11T17:27:51.735Z,97567.00
2023-06-11T17:30:18.730Z,97565.20
2023-06-11T17:32:45.732Z,97566.60
2023-06-11T17:35:12.849Z,97570.40
2023-06-11T17:37:39.647Z,97571.80
2023-06-11T17:40:12.881Z,97566.40
2023-06-11T17:42:42.540Z,97567.80
2023-06-11T17:45:12.713Z,97570.60
2023-06-11T17:47:39.343Z,97576.00
2023-06-11T17:50:06.956Z,97577.40
2023-06-11T17:52:33.869Z,97577.80
2023-06-11T17:55:00.546Z,97580.40
2023-06-11T17:57:27.142Z,97581.00
2023-06-11T17:59:53.723Z,97579.40
2023-06-11T18:02:20.347Z,97582.20
2023-06-11T18:04:47.011Z,97585.20
2023-06-11T18:07:13.671Z,97587.00
2023-06-11T18:09:40.280Z,97584.20
2023-06-11T18:12:08.834Z,97587.40
2023-06-11T18:14:35.533Z,97594.60
2023-06-11T18:17:02.119Z,97587.60
2023-06-11T18:19:28.714Z,97587.60
2023-06-11T18:21:55.429Z,97586.60
2023-06-11T18:24:22.053Z,97582.20
2023-06-11T18:26:48.915Z,97579.60
2023-06-11T18:29:15.490Z,97577.00
2023-06-11T18:31:42.155Z,97576.20
2023-06-11T18:34:08.910Z,97579.60
2023-06-11T18:36:35.894Z,97582.20
2023-06-11T18:39:04.041Z,97581.80
2023-06-11T18:41:31.111Z,97583.60
2023-06-11T18:43:58.312Z,97586.80
2023-06-11T18:46:26.111Z,97587.40
2023-06-11T18:48:52.922Z,97585.00
2023-06-11T18:51:19.814Z,97583.00
2023-06-11T18:53:47.261Z,97586.60
2023-06-11T18:56:13.879Z,97585.20
2023-06-11T18:58:40.445Z,97586.00
2023-06-11T19:01:07.108Z,97589.40
2023-06-11T19:03:38.204Z,97588.00
2023-06-11T19:06:06.028Z,97590.00
2023-06-11T19:08:32.682Z,97588.60
2023-06-11T19:10:59.260Z,97590.80
2023-06-11T19:13:25.962Z,97592.00
2023-06-11T19:15:54.993Z,97588.80
2023-06-11T19:18:21.868Z,97589.60
2023-06-11T19:20:48.597Z,97591.20
2023-06-11T19:23:15.520Z,97597.60
2023-06-11T19:25:42.352Z,97596.40
2023-06-11T19:28:09.074Z,97596.60
2023-06-11T19:30:35.891Z,97598.20
2023-06-11T19:33:02.648Z,97600.20
2023-06-11T19:35:29.514Z,97600.00
2023-06-11T19:37:56.447Z,97604.00
2023-06-11T19:40:23.017Z,97597.40
2023-06-11T19:42:49.592Z,97600.00
2023-06-11T19:45:19.046Z,97603.20
2023-06-11T19:47:46.033Z,97604.40
2023-06-11T19:50:13.345Z,97607.00
2023-06-11T19:52:40.395Z,97607.80
2023-06-11T19:55:07.556Z,97612.80
2023-06-11T19:57:34.800Z,97609.80
2023-06-11T20:00:01.463Z,97612.80
2023-06-11T20:02:28.273Z,97611.60
2023-06-11T20:04:55.245Z,97610.80
2023-06-11T20:07:22.023Z,97612.60
2023-06-11T20:09:48.751Z,97612.40
2023-06-11T20:12:15.498Z,97613.40
2023-06-11T20:14:43.325Z,97614.60
2023-06-11T20:17:10.098Z,97612.00
2023-06-11T20:19:37.202Z,97606.40
2023-06-11T20:22:04.736Z,97612.40
2023-06-11T20:24:31.523Z,97612.80
2023-06-11T20:26:58.146Z,97611.20
2023-06-11T20:29:25.090Z,97612.60
2023-06-11T20:31:52.063Z,97617.00
2023-06-11T20:34:19.116Z,97618.40
2023-06-11T20:36:46.247Z,97617.40
2023-06-11T20:39:12.949Z,97617.00
2023-06-11T20:41:39.702Z,97617.60
2023-06-11T20:44:06.339Z,97616.60
2023-06-11T20:46:33.164Z,97614.60
2023-06-11T20:49:00.118Z,97617.00
2023-06-11T20:51:27.232Z,97614.00
2023-06-11T20:53:53.779Z,97615.40
2023-06-11T20:56:20.595Z,97617.20
2023-06-11T20:58:47.452Z,97614.60
2023-06-11T21:01:14.657Z,97615.60
2023-06-11T21:03:41.435Z,97613.80
2023-06-11T21:06:08.307Z,97614.80
2023-06-11T21:08:34.952Z,97616.60
2023-06-11T21:11:01.688Z,97613.60
2023-06-11T21:13:28.642Z,97611.60
2023-06-11T21:15:55.355Z,97606.60
2023-06-11T21:18:22.142Z,97609.00
2023-06-11T21:20:48.724Z,97610.80
2023-06-11T21:23:15.621Z,97607.00
2023-06-11T21:25:42.188Z,97608.40
2023-06-11T21:28:08.795Z,97605.20
2023-06-11T21:30:37.220Z,97600.60
2023-06-11T21:33:04.482Z,97600.40
2023-06-11T21:35:31.222Z,97600.60
2023-06-11T21:37:57.789Z,97597.40
2023-06-11T21:40:24.361Z,97595.80
2023-06-11T21:42:50.974Z,97596.80
2023-06-11T21:45:17.766Z,97594.80
2023-06-11T21:47:44.581Z,97590.60
2023-06-11T21:50:12.281Z,97592.00
2023-06-11T21:52:39.567Z,97595.00
2023-06-11T21:55:09.763Z,97592.20
2023-06-11T21:57:36.608Z,97590.20
2023-06-11T22:00:12.636Z,97591.40
2023-06-11T22:02:43.710Z,97591.80
2023-06-11T22:05:13.534Z,97589.60
2023-06-11T22:07:40.750Z,97590.20
2023-06-11T22:10:09.625Z,97595.80
2023-06-11T22:12:42.462Z,97594.00
2023-06-11T22:15:11.950Z,97589.60
2023-06-11T22:17:40.569Z,97593.60
2023-06-11T22:20:10.363Z,97593.20
2023-06-11T22:22:39.532Z,97593.40
2023-06-11T22:25:10.654Z,97591.00
2023-06-11T22:27:39.556Z,97594.60
2023-06-11T22:30:07.399Z,97588.20
2023-06-11T22:32:34.671Z,97593.80
2023-06-11T22:35:01.542Z,97587.20
2023-06-11T22:37:28.379Z,97587.20
2023-06-11T22:39:55.407Z,97589.20
2023-06-11T22:42:22.063Z,97587.40
2023-06-11T22:44:48.679Z,97588.40
2023-06-11T22:47:16.437Z,97588.40
2023-06-11T22:49:43.051Z,97587.00
2023-06-11T22:52:09.647Z,97590.40
2023-06-11T22:54:36.613Z,97589.00
2023-06-11T22:57:04.459Z,97590.60
2023-06-11T22:59:31.089Z,97587.20
2023-06-11T23:01:57.849Z,97585.40
2023-06-11T23:04:24.578Z,97586.40
2023-06-11T23:06:52.093Z,97591.80
2023-06-11T23:09:20.462Z,97589.80
2023-06-11T23:11:48.225Z,97585.20
2023-06-11T23:14:16.835Z,97582.00
2023-06-11T23:16:49.329Z,97584.40
2023-06-11T23:19:18.701Z,97584.20
2023-06-11T23:21:45.681Z,97579.20
2023-06-11T23:24:12.829Z,97578.40
2023-06-11T23:26:45.278Z,97575.40
2023-06-11T23:29:16.149Z,97575.20
2023-06-11T23:31:43.675Z,97568.40
2023-06-11T23:34:11.318Z,97571.80
2023-06-11T23:36:41.355Z,97571.40
2023-06-11T23:39:09.726Z,97575.00
2023-06-11T23:41:37.497Z,97570.20
2023-06-11T23:44:04.307Z,97569.40
2023-06-11T23:46:32.395Z,97565.20
2023-06-11T23:48:59.124Z,97562.20
2023-06-11T23:51:27.042Z,97565.00
2023-06-11T23:53:53.944Z,97562.60
2023-06-11T23:56:20.638Z,97558.00
2023-06-11T23:58:47.658Z,97555.60
